createdAt,value
2022-10-03T00:01:15.808Z,100.00
2022-10-03T00:03:55.459Z,100.00
2022-10-03T00:06:47.741Z,100.00
2022-10-03T00:09:38.988Z,100.00
2022-10-03T00:12:20.877Z,100.00
2022-10-03T00:15:09.100Z,100.00
2022-10-03T00:18:04.037Z,100.00
2022-10-03T00:20:39.819Z,100.00
2022-10-03T00:23:30.438Z,100.00
2022-10-03T00:26:43.657Z,100.00
2022-10-03T00:29:31.858Z,100.00
2022-10-03T00:32:06.598Z,100.00
2022-10-03T00:34:42.559Z,100.00
2022-10-03T00:37:37.899Z,100.00
2022-10-03T00:40:30.222Z,100.00
2022-10-03T00:43:15.456Z,100.00
2022-10-03T00:46:06.736Z,100.00
2022-10-03T00:48:45.538Z,100.00
2022-10-03T00:51:22.600Z,100.00
2022-10-03T00:54:26.600Z,100.00
2022-10-03T00:57:15.060Z,100.00
2022-10-03T01:00:19.122Z,100.00
2022-10-03T01:02:52.240Z,100.00
2022-10-03T01:05:19.059Z,100.00
2022-10-03T01:08:23.181Z,100.00
2022-10-03T01:11:12.583Z,100.00
2022-10-03T01:14:09.637Z,100.00
2022-10-03T01:16:45.840Z,100.00
2022-10-03T01:19:49.979Z,100.00
2022-10-03T01:22:53.942Z,100.00
2022-10-03T01:25:26.561Z,100.00
2022-10-03T01:28:47.618Z,100.00
2022-10-03T01:31:15.973Z,100.00
2022-10-03T01:34:08.521Z,100.00
2022-10-03T01:36:52.660Z,100.00
2022-10-03T01:39:42.358Z,100.00
2022-10-03T01:42:31.583Z,100.00
2022-10-03T01:45:13.510Z,100.00
2022-10-03T01:47:51.590Z,100.00
2022-10-03T01:50:25.579Z,100.00
2022-10-03T01:53:17.779Z,100.00
2022-10-03T01:55:55.204Z,100.00
2022-10-03T01:58:31.390Z,100.00
2022-10-03T02:01:12.633Z,100.00
2022-10-03T02:03:47.138Z,100.00
2022-10-03T02:06:22.438Z,100.00
2022-10-03T02:09:05.381Z,100.00
2022-10-03T02:11:42.996Z,100.00
2022-10-03T02:14:24.559Z,100.00
2022-10-03T02:17:02.960Z,100.00
2022-10-03T02:19:35.644Z,100.00
2022-10-03T02:22:03.139Z,100.00
2022-10-03T02:24:49.459Z,100.00
2022-10-03T02:27:55.150Z,100.00
2022-10-03T02:30:43.719Z,100.00
2022-10-03T02:33:49.200Z,100.00
2022-10-03T02:36:35.197Z,100.00
2022-10-03T02:39:39.479Z,100.00
2022-10-03T02:42:41.977Z,100.00
2022-10-03T02:45:33.475Z,100.00
2022-10-03T02:48:30.219Z,100.00
2022-10-03T02:51:08.259Z,100.00
2022-10-03T02:54:07.318Z,100.00
2022-10-03T02:57:04.840Z,100.00
2022-10-03T02:59:50.057Z,100.00
2022-10-03T03:02:48.388Z,100.00
2022-10-03T03:05:33.857Z,100.00
2022-10-03T03:08:06.478Z,100.00
2022-10-03T03:11:12.501Z,100.00
2022-10-03T03:14:00.800Z,100.00
2022-10-03T03:16:46.376Z,100.00
2022-10-03T03:19:27.418Z,100.00
2022-10-03T03:22:33.123Z,100.00
2022-10-03T03:25:29.357Z,100.00
2022-10-03T03:28:14.996Z,100.00
2022-10-03T03:31:00.818Z,100.00
2022-10-03T03:33:33.220Z,100.00
2022-10-03T03:36:06.100Z,100.00
2022-10-03T03:38:57.402Z,100.00
2022-10-03T03:42:09.238Z,100.00
2022-10-03T03:44:55.883Z,100.00
2022-10-03T03:47:43.418Z,100.00
2022-10-03T03:50:41.640Z,100.00
2022-10-03T03:53:45.778Z,100.00
2022-10-03T03:56:37.519Z,100.00
2022-10-03T03:59:27.578Z,100.00
2022-10-03T04:02:12.952Z,100.00
2022-10-03T04:04:55.942Z,100.00
2022-10-03T04:07:34.019Z,100.00
2022-10-03T04:10:22.960Z,100.00
2022-10-03T04:12:55.984Z,100.00
2022-10-03T04:16:01.718Z,100.00
2022-10-03T04:19:00.859Z,100.00
2022-10-03T04:21:49.336Z,100.00
2022-10-03T04:24:50.598Z,100.00
2022-10-03T04:27:54.886Z,100.00
2022-10-03T04:30:33.598Z,100.00
2022-10-03T04:33:06.986Z,100.00
2022-10-03T04:35:50.736Z,100.00
2022-10-03T04:38:40.419Z,100.00
2022-10-03T04:41:27.787Z,100.00
2022-10-03T04:44:28.419Z,100.00
2022-10-03T04:46:57.479Z,100.00
2022-10-03T04:49:39.338Z,100.00
2022-10-03T04:52:45.152Z,100.00
2022-10-03T04:55:44.058Z,100.00
2022-10-03T04:58:32.503Z,100.00
2022-10-03T05:01:21.509Z,100.00
2022-10-03T05:03:57.719Z,100.00
2022-10-03T05:06:30.098Z,100.00
2022-10-03T05:09:21.296Z,100.00
2022-10-03T05:12:15.043Z,100.00
2022-10-03T05:15:19.534Z,100.00
2022-10-03T05:18:10.100Z,100.00
2022-10-03T05:20:42.736Z,100.00
2022-10-03T05:23:24.559Z,100.00
2022-10-03T05:26:43.567Z,100.00
2022-10-03T05:29:02.818Z,100.00
2022-10-03T05:32:07.073Z,100.00
2022-10-03T05:34:38.943Z,100.00
2022-10-03T05:37:43.057Z,100.00
2022-10-03T05:40:17.438Z,100.00
2022-10-03T05:42:53.159Z,100.00
2022-10-03T05:45:51.890Z,100.00
2022-10-03T05:48:47.836Z,100.00
2022-10-03T05:51:39.799Z,100.00
2022-10-03T05:54:06.758Z,100.00
2022-10-03T05:56:58.130Z,100.00
2022-10-03T05:59:35.919Z,100.00
2022-10-03T06:02:33.459Z,100.00
2022-10-03T06:05:26.576Z,100.00
2022-10-03T06:08:11.819Z,100.00
2022-10-03T06:10:51.141Z,100.00
2022-10-03T06:13:21.697Z,100.00
2022-10-03T06:16:12.369Z,100.00
2022-10-03T06:18:43.159Z,100.00
2022-10-03T06:21:19.178Z,100.00
2022-10-03T06:24:07.339Z,100.00
2022-10-03T06:26:39.958Z,100.00
2022-10-03T06:29:31.182Z,100.00
2022-10-03T06:32:31.776Z,100.00
2022-10-03T06:35:23.478Z,100.00
2022-10-03T06:38:27.778Z,100.00
2022-10-03T06:41:31.462Z,100.00
2022-10-03T06:44:16.937Z,100.00
2022-10-03T06:47:08.262Z,97.99
2022-10-03T06:50:00.239Z,92.00
2022-10-03T06:52:39.165Z,94.24
2022-10-03T06:55:28.156Z,94.83
2022-10-03T06:58:10.079Z,91.84
2022-10-03T07:01:15.772Z,87.90
2022-10-03T07:04:01.439Z,84.89
2022-10-03T07:06:51.537Z,79.61
2022-10-03T07:09:55.236Z,75.71
2022-10-03T07:12:47.680Z,71.52
2022-10-03T07:15:50.808Z,69.06
2022-10-03T07:18:19.641Z,62.91
2022-10-03T07:21:24.398Z,63.72
2022-10-03T07:24:14.038Z,66.82
2022-10-03T07:27:15.039Z,59.81
2022-10-03T07:29:55.040Z,65.56
2022-10-03T07:32:39.977Z,73.71
2022-10-03T07:35:26.938Z,77.01
2022-10-03T07:38:24.248Z,79.37
2022-10-03T07:41:03.020Z,81.19
2022-10-03T07:43:48.458Z,82.40
2022-10-03T07:46:53.579Z,83.57
2022-10-03T07:49:57.678Z,85.95
2022-10-03T07:52:42.959Z,86.37
2022-10-03T07:55:27.941Z,88.11
2022-10-03T07:58:13.220Z,89.27
2022-10-03T08:00:51.822Z,89.86
2022-10-03T08:03:30.463Z,91.08
2022-10-03T08:06:17.338Z,91.56
2022-10-03T08:09:14.662Z,92.99
2022-10-03T08:11:56.659Z,94.11
2022-10-03T08:14:32.623Z,96.04
2022-10-03T08:17:24.108Z,95.84
2022-10-03T08:20:12.327Z,94.65
2022-10-03T08:23:00.518Z,95.15
2022-10-03T08:26:04.697Z,94.51
2022-10-03T08:29:05.286Z,94.83
2022-10-03T08:31:44.590Z,94.53
2022-10-03T08:34:45.499Z,95.43
2022-10-03T08:37:43.323Z,94.78
2022-10-03T08:40:42.743Z,95.26
2022-10-03T08:43:47.144Z,95.54
2022-10-03T08:46:52.605Z,94.29
2022-10-03T08:49:44.382Z,93.77
2022-10-03T08:52:48.518Z,95.77
2022-10-03T08:55:41.223Z,94.63
2022-10-03T08:58:45.546Z,95.71
2022-10-03T09:01:50.373Z,96.02
2022-10-03T09:04:42.045Z,96.59
2022-10-03T09:07:27.187Z,93.38
2022-10-03T09:10:20.501Z,92.11
2022-10-03T09:12:59.150Z,90.42
2022-10-03T09:15:44.479Z,89.82
2022-10-03T09:18:53.838Z,88.84
2022-10-03T09:21:37.429Z,80.10
2022-10-03T09:24:41.979Z,75.22
2022-10-03T09:27:27.041Z,70.50
2022-10-03T09:30:23.251Z,64.43
2022-10-03T09:33:08.438Z,60.09
2022-10-03T09:36:12.284Z,58.30
2022-10-03T09:39:16.532Z,61.69
2022-10-03T09:42:04.979Z,61.41
2022-10-03T09:45:10.243Z,59.83
2022-10-03T09:48:04.141Z,56.57
2022-10-03T09:50:55.564Z,56.10
2022-10-03T09:53:47.136Z,53.31
2022-10-03T09:56:51.760Z,52.46
2022-10-03T09:59:59.833Z,47.23
2022-10-03T10:03:03.662Z,50.66
2022-10-03T10:05:41.377Z,53.25
2022-10-03T10:08:38.642Z,57.16
2022-10-03T10:11:13.501Z,59.39
2022-10-03T10:14:13.518Z,61.00
2022-10-03T10:16:53.679Z,64.34
2022-10-03T10:19:41.898Z,63.30
2022-10-03T10:22:33.258Z,72.08
2022-10-03T10:25:37.441Z,73.02
2022-10-03T10:28:25.907Z,77.29
2022-10-03T10:31:29.845Z,80.41
2022-10-03T10:34:34.185Z,82.14
2022-10-03T10:37:25.520Z,82.83
2022-10-03T10:40:12.781Z,84.13
2022-10-03T10:43:16.721Z,85.71
2022-10-03T10:46:08.136Z,85.58
2022-10-03T10:49:05.618Z,88.05
2022-10-03T10:51:44.282Z,89.05
2022-10-03T10:54:29.027Z,89.54
2022-10-03T10:56:58.341Z,88.99
2022-10-03T10:59:51.902Z,87.61
2022-10-03T11:03:09.542Z,79.64
2022-10-03T11:06:16.561Z,73.99
2022-10-03T11:09:20.742Z,68.36
2022-10-03T11:11:51.361Z,62.06
2022-10-03T11:14:36.346Z,58.77
2022-10-03T11:17:24.898Z,53.98
2022-10-03T11:20:30.158Z,50.79
2022-10-03T11:23:41.920Z,48.08
2022-10-03T11:26:11.719Z,47.65
2022-10-03T11:28:50.544Z,50.63
2022-10-03T11:31:23.491Z,47.70
2022-10-03T11:34:27.498Z,52.45
2022-10-03T11:37:13.420Z,55.34
2022-10-03T11:39:58.740Z,59.52
2022-10-03T11:42:50.919Z,63.78
2022-10-03T11:45:35.005Z,62.99
2022-10-03T11:48:31.085Z,70.70
2022-10-03T11:51:02.763Z,74.89
2022-10-03T11:54:13.241Z,78.41
2022-10-03T11:56:47.400Z,80.49
2022-10-03T11:59:51.060Z,81.42
2022-10-03T12:02:40.738Z,82.56
2022-10-03T12:05:11.660Z,83.24
2022-10-03T12:08:05.957Z,75.74
2022-10-03T12:10:41.559Z,73.98
2022-10-03T12:13:16.677Z,71.74
2022-10-03T12:15:48.057Z,66.66
2022-10-03T12:18:45.819Z,63.39
2022-10-03T12:21:14.772Z,58.01
2022-10-03T12:24:28.081Z,54.46
2022-10-03T12:27:03.778Z,51.51
2022-10-03T12:29:32.696Z,50.02
2022-10-03T12:32:25.949Z,50.13
2022-10-03T12:35:04.759Z,49.03
2022-10-03T12:37:52.620Z,48.35
2022-10-03T12:40:39.841Z,49.54
2022-10-03T12:43:43.984Z,45.88
2022-10-03T12:46:23.936Z,42.82
2022-10-03T12:49:05.599Z,42.16
2022-10-03T12:51:50.672Z,43.34
2022-10-03T12:54:39.139Z,42.92
2022-10-03T12:57:24.425Z,44.87
2022-10-03T13:00:03.197Z,45.92
2022-10-03T13:02:36.718Z,44.81
2022-10-03T13:05:37.239Z,43.19
2022-10-03T13:08:12.046Z,43.95
2022-10-03T13:10:42.440Z,44.14
2022-10-03T13:13:31.281Z,44.66
2022-10-03T13:16:16.859Z,46.16
2022-10-03T13:19:14.380Z,42.26
2022-10-03T13:22:18.283Z,46.08
2022-10-03T13:24:59.321Z,46.68
2022-10-03T13:27:41.547Z,45.35
2022-10-03T13:30:31.344Z,45.74
2022-10-03T13:33:21.663Z,47.59
2022-10-03T13:36:10.025Z,49.32
2022-10-03T13:38:59.936Z,50.79
2022-10-03T13:41:48.341Z,51.05
2022-10-03T13:44:37.051Z,53.62
2022-10-03T13:47:55.980Z,54.19
2022-10-03T13:50:34.203Z,54.47
2022-10-03T13:53:03.940Z,53.97
2022-10-03T13:55:52.094Z,52.26
2022-10-03T13:58:48.963Z,51.95
2022-10-03T14:01:53.141Z,53.11
2022-10-03T14:04:44.647Z,58.27
2022-10-03T14:07:14.338Z,64.51
2022-10-03T14:09:56.044Z,66.74
2022-10-03T14:12:50.986Z,70.00
2022-10-03T14:15:18.607Z,68.67
2022-10-03T14:17:45.278Z,69.77
2022-10-03T14:20:21.236Z,69.66
2022-10-03T14:22:56.978Z,72.94
2022-10-03T14:25:28.420Z,73.53
2022-10-03T14:28:03.690Z,73.30
2022-10-03T14:30:45.446Z,74.61
2022-10-03T14:33:30.002Z,76.61
2022-10-03T14:36:05.655Z,79.14
2022-10-03T14:39:03.228Z,79.64
2022-10-03T14:41:33.066Z,81.66
2022-10-03T14:44:13.677Z,83.10
2022-10-03T14:47:05.220Z,83.32
2022-10-03T14:49:53.459Z,83.19
2022-10-03T14:52:38.046Z,83.97
2022-10-03T14:55:31.786Z,84.41
2022-10-03T14:58:10.838Z,82.56
2022-10-03T15:00:43.887Z,82.64
2022-10-03T15:03:20.878Z,82.58
2022-10-03T15:05:59.324Z,84.36
2022-10-03T15:08:31.381Z,84.17
2022-10-03T15:10:58.266Z,84.62
2022-10-03T15:13:25.163Z,84.81
2022-10-03T15:15:52.356Z,83.74
2022-10-03T15:18:22.184Z,82.31
2022-10-03T15:20:49.380Z,82.48
2022-10-03T15:23:26.642Z,82.62
2022-10-03T15:25:54.299Z,83.60
2022-10-03T15:28:24.551Z,84.13
2022-10-03T15:30:52.365Z,84.84
2022-10-03T15:33:37.862Z,86.67
2022-10-03T15:36:14.757Z,86.64
2022-10-03T15:38:43.246Z,86.74
2022-10-03T15:41:17.020Z,87.30
2022-10-03T15:43:50.730Z,89.04
2022-10-03T15:46:39.369Z,89.90
2022-10-03T15:49:16.405Z,91.63
2022-10-03T15:51:44.084Z,92.89
2022-10-03T15:54:14.311Z,93.04
2022-10-03T15:56:46.291Z,93.83
2022-10-03T15:59:25.579Z,94.26
2022-10-03T16:01:53.942Z,95.24
2022-10-03T16:04:20.863Z,96.41
2022-10-03T16:07:03.355Z,97.50
2022-10-03T16:09:46.384Z,97.75
2022-10-03T16:12:52.502Z,98.85
2022-10-03T16:15:27.640Z,99.46
2022-10-03T16:18:32.328Z,99.99
2022-10-03T16:21:01.493Z,100.00
2022-10-03T16:23:29.054Z,100.00
2022-10-03T16:25:57.687Z,100.00
2022-10-03T16:28:30.418Z,100.00
2022-10-03T16:30:59.435Z,100.00
2022-10-03T16:33:27.529Z,100.00
2022-10-03T16:35:58.648Z,100.00
2022-10-03T16:38:31.828Z,100.00
2022-10-03T16:41:01.210Z,100.00
2022-10-03T16:43:30.368Z,100.00
2022-10-03T16:45:57.457Z,100.00
2022-10-03T16:48:47.130Z,100.00
2022-10-03T16:51:20.356Z,100.00
2022-10-03T16:53:48.931Z,100.00
2022-10-03T16:56:17.584Z,100.00
2022-10-03T16:58:55.746Z,100.00
2022-10-03T17:01:53.209Z,100.00
2022-10-03T17:04:29.159Z,100.00
2022-10-03T17:06:57.348Z,100.00
2022-10-03T17:09:47.664Z,100.00
2022-10-03T17:12:25.150Z,100.00
2022-10-03T17:14:55.928Z,100.00
2022-10-03T17:17:48.654Z,100.00
2022-10-03T17:20:48.315Z,100.00
2022-10-03T17:23:27.707Z,100.00
2022-10-03T17:26:10.747Z,100.00
2022-10-03T17:28:44.770Z,100.00
2022-10-03T17:31:34.266Z,100.00
2022-10-03T17:34:16.228Z,100.00
2022-10-03T17:37:13.674Z,100.00
2022-10-03T17:40:01.050Z,100.00
2022-10-03T17:42:49.449Z,100.00
2022-10-03T17:45:18.971Z,100.00
2022-10-03T17:47:46.628Z,100.00
2022-10-03T17:50:17.613Z,100.00
2022-10-03T17:52:46.088Z,100.00
2022-10-03T17:55:19.050Z,100.00
2022-10-03T17:57:54.110Z,100.00
2022-10-03T18:00:27.171Z,100.00
2022-10-03T18:03:01.584Z,100.00
2022-10-03T18:05:31.286Z,100.00
2022-10-03T18:08:19.188Z,100.00
2022-10-03T18:10:50.589Z,100.00
2022-10-03T18:13:22.071Z,100.00
2022-10-03T18:16:07.881Z,100.00
2022-10-03T18:19:10.587Z,100.00
2022-10-03T18:21:40.763Z,100.00
2022-10-03T18:24:38.499Z,100.00
2022-10-03T18:27:27.129Z,100.00
2022-10-03T18:30:10.607Z,100.00
2022-10-03T18:32:38.551Z,100.00
2022-10-03T18:35:19.316Z,100.00
2022-10-03T18:37:46.123Z,100.00
2022-10-03T18:40:20.890Z,100.00
2022-10-03T18:42:50.403Z,100.00
2022-10-03T18:45:43.940Z,100.00
2022-10-03T18:48:31.412Z,100.00
2022-10-03T18:51:16.139Z,100.00
2022-10-03T18:53:48.495Z,100.00
2022-10-03T18:56:26.106Z,100.00
2022-10-03T18:59:14.268Z,100.00
2022-10-03T19:01:54.595Z,100.00
2022-10-03T19:04:36.775Z,100.00
2022-10-03T19:07:11.295Z,100.00
2022-10-03T19:10:14.507Z,100.00
2022-10-03T19:12:47.447Z,100.00
2022-10-03T19:15:43.932Z,100.00
2022-10-03T19:18:23.136Z,100.00
2022-10-03T19:20:51.719Z,100.00
2022-10-03T19:23:39.189Z,100.00
2022-10-03T19:26:10.827Z,100.00
2022-10-03T19:28:48.192Z,100.00
2022-10-03T19:31:19.809Z,100.00
2022-10-03T19:33:51.928Z,100.00
2022-10-03T19:36:23.148Z,100.00
2022-10-03T19:38:50.288Z,100.00
2022-10-03T19:41:31.192Z,100.00
2022-10-03T19:44:03.053Z,100.00
2022-10-03T19:46:29.835Z,100.00
2022-10-03T19:49:22.526Z,100.00
2022-10-03T19:51:49.422Z,100.00
2022-10-03T19:54:31.614Z,100.00
2022-10-03T19:56:58.569Z,100.00
2022-10-03T19:59:45.133Z,100.00
2022-10-03T20:02:12.172Z,100.00
2022-10-03T20:04:38.972Z,100.00
2022-10-03T20:07:11.629Z,100.00
2022-10-03T20:09:38.471Z,100.00
2022-10-03T20:12:09.490Z,100.00
2022-10-03T20:14:41.652Z,100.00
2022-10-03T20:17:19.748Z,100.00
2022-10-03T20:19:56.984Z,100.00
2022-10-03T20:22:35.072Z,100.00
2022-10-03T20:25:02.113Z,100.00
2022-10-03T20:27:36.627Z,100.00
2022-10-03T20:30:40.632Z,100.00
2022-10-03T20:33:08.397Z,100.00
2022-10-03T20:35:58.309Z,100.00
2022-10-03T20:38:31.107Z,100.00
2022-10-03T20:41:01.257Z,100.00
2022-10-03T20:43:53.568Z,100.00
2022-10-03T20:46:43.649Z,100.00
2022-10-03T20:49:26.112Z,100.00
2022-10-03T20:51:52.889Z,100.00
2022-10-03T20:54:21.388Z,100.00
2022-10-03T20:56:52.801Z,100.00
2022-10-03T20:59:21.176Z,100.00
2022-10-03T21:01:48.067Z,100.00
2022-10-03T21:04:24.328Z,100.00
2022-10-03T21:07:28.628Z,100.00
2022-10-03T21:10:00.668Z,100.00
2022-10-03T21:12:31.995Z,100.00
2022-10-03T21:15:03.548Z,100.00
2022-10-03T21:17:30.408Z,100.00
2022-10-03T21:20:06.127Z,100.00
2022-10-03T21:22:32.951Z,100.00
2022-10-03T21:25:02.019Z,100.00
2022-10-03T21:27:28.872Z,100.00
2022-10-03T21:29:58.766Z,100.00
2022-10-03T21:32:44.274Z,100.00
2022-10-03T21:35:32.107Z,100.00
2022-10-03T21:38:36.154Z,100.00
2022-10-03T21:41:26.208Z,100.00
2022-10-03T21:44:01.050Z,100.00
2022-10-03T21:46:45.208Z,100.00
2022-10-03T21:49:33.309Z,100.00
2022-10-03T21:52:06.027Z,100.00
2022-10-03T21:55:04.906Z,100.00
2022-10-03T21:57:41.146Z,100.00
2022-10-03T22:00:29.550Z,100.00
2022-10-03T22:03:14.727Z,100.00
2022-10-03T22:05:41.507Z,100.00
2022-10-03T22:08:14.308Z,100.00
2022-10-03T22:10:41.208Z,100.00
2022-10-03T22:13:09.170Z,100.00
2022-10-03T22:15:54.527Z,100.00
2022-10-03T22:18:21.415Z,100.00
2022-10-03T22:20:54.918Z,100.00
2022-10-03T22:23:32.989Z,100.00
2022-10-03T22:26:03.892Z,100.00
2022-10-03T22:28:53.529Z,100.00
2022-10-03T22:31:26.237Z,100.00
2022-10-03T22:34:22.828Z,100.00
2022-10-03T22:36:49.629Z,100.00
2022-10-03T22:39:17.588Z,100.00
2022-10-03T22:41:50.690Z,100.00
2022-10-03T22:44:18.395Z,100.00
2022-10-03T22:46:47.815Z,100.00
2022-10-03T22:49:21.229Z,100.00
2022-10-03T22:51:48.933Z,100.00
2022-10-03T22:54:17.170Z,100.00
2022-10-03T22:56:46.628Z,100.00
2022-10-03T22:59:34.768Z,100.00
2022-10-03T23:02:05.555Z,100.00
2022-10-03T23:04:33.350Z,100.00
2022-10-03T23:07:18.652Z,100.00
2022-10-03T23:10:10.452Z,100.00
2022-10-03T23:12:44.948Z,100.00
2022-10-03T23:15:15.029Z,100.00
2022-10-03T23:18:03.589Z,100.00
2022-10-03T23:21:02.248Z,100.00
2022-10-03T23:23:42.469Z,100.00
2022-10-03T23:26:46.728Z,100.00
2022-10-03T23:29:14.927Z,100.00
2022-10-03T23:32:07.029Z,100.00
2022-10-03T23:34:36.656Z,100.00
2022-10-03T23:37:15.877Z,100.00
2022-10-03T23:39:44.115Z,100.00
2022-10-03T23:42:20.090Z,100.00
2022-10-03T23:44:50.747Z,100.00
2022-10-03T23:47:19.730Z,100.00
2022-10-03T23:49:47.790Z,100.00
2022-10-03T23:52:30.912Z,100.00
2022-10-03T23:55:00.187Z,100.00
2022-10-03T23:57:38.709Z,100.00
